Time;durP1;ratioP1;P1;durP2;ratioP2;P2;SDS_P1;SDS_P2;PMS_P1;PMS_P2;Temp;Humidity;BMP_temperature;BMP_pressure;BME280_temperature;BME280_humidity;BME280_pressure;Samples;Min_cycle;Max_cycle;Signal;HPM_P1;HPM_P2
2022/10/17 03:02:54;;;;;;;0.60;0.50;;;16.60;81.00;;;;;;5053560;23;20500;-70
2022/10/17 03:05:22;;;;;;;0.70;0.70;;;16.60;80.90;;;;;;4975803;28;20457;-70
2022/10/17 03:07:49;;;;;;;0.67;0.67;;;16.60;80.80;;;;;;4974881;28;20458;-70
2022/10/17 03:10:17;;;;;;;0.70;0.70;;;16.50;81.00;;;;;;4975716;28;20567;-70
2022/10/17 03:12:44;;;;;;;0.67;0.63;;;16.50;81.20;;;;;;4975640;28;20469;-70
2022/10/17 03:15:12;;;;;;;0.60;0.60;;;16.50;81.10;;;;;;4976872;28;20968;-69
2022/10/17 03:17:38;;;;;;;0.80;0.60;;;16.50;81.10;;;;;;4975586;28;20840;-69
2022/10/17 03:20:07;;;;;;;0.73;0.73;;;16.30;81.60;;;;;;4975270;28;20964;-69
2022/10/17 03:22:34;;;;;;;0.80;0.60;;;16.20;82.20;;;;;;4975390;28;20470;-70
2022/10/17 03:25:01;;;;;;;1.13;0.60;;;16.20;82.20;;;;;;4975472;28;20458;-70
2022/10/17 03:27:28;;;;;;;1.20;1.10;;;16.20;81.90;;;;;;4975357;28;20455;-70
2022/10/17 03:29:54;;;;;;;0.60;0.60;;;16.00;82.10;;;;;;4975334;28;20453;-70
2022/10/17 03:32:21;;;;;;;0.70;0.70;;;16.00;82.10;;;;;;4975216;28;20470;-70
2022/10/17 03:34:48;;;;;;;1.00;0.77;;;16.10;81.50;;;;;;4975286;28;20504;-70
2022/10/17 03:37:16;;;;;;;1.40;0.90;;;16.20;81.00;;;;;;4975223;28;20478;-70
2022/10/17 03:39:42;;;;;;;0.60;0.60;;;16.20;80.70;;;;;;4975210;28;20457;-70
2022/10/17 03:42:09;;;;;;;1.57;0.80;;;16.20;80.40;;;;;;4975014;28;20478;-70
2022/10/17 03:44:36;;;;;;;0.60;0.60;;;16.20;79.90;;;;;;4975891;28;20450;-70
2022/10/17 03:47:02;;;;;;;0.63;0.63;;;16.20;79.80;;;;;;4975041;28;20497;-70
2022/10/17 03:49:29;;;;;;;0.70;0.70;;;16.20;80.20;;;;;;4974676;28;21057;-70
2022/10/17 03:51:56;;;;;;;0.70;0.70;;;16.10;80.90;;;;;;4974913;28;20474;-70
2022/10/17 03:54:24;;;;;;;1.47;1.00;;;16.10;81.30;;;;;;4974917;28;20450;-70
2022/10/17 03:56:50;;;;;;;0.70;0.70;;;16.10;81.10;;;;;;4974855;28;20489;-70
2022/10/17 03:59:17;;;;;;;0.70;0.70;;;16.10;81.50;;;;;;4974544;28;20950;-70
2022/10/17 04:01:44;;;;;;;0.70;0.70;;;16.10;81.70;;;;;;4974660;28;20477;-71
2022/10/17 04:04:11;;;;;;;1.07;1.00;;;16.10;81.50;;;;;;4974803;28;20453;-70
2022/10/17 04:06:38;;;;;;;1.53;0.70;;;16.10;81.90;;;;;;4974814;28;20822;-70
2022/10/17 04:09:06;;;;;;;1.60;0.90;;;16.10;82.00;;;;;;4974477;28;20818;-70
2022/10/17 04:11:34;;;;;;;0.80;0.60;;;16.10;81.80;;;;;;4974593;28;20465;-69
2022/10/17 04:14:01;;;;;;;0.80;0.80;;;16.10;81.50;;;;;;4974688;28;20457;-70
2022/10/17 04:16:28;;;;;;;1.53;0.97;;;16.10;81.50;;;;;;4974588;28;20509;-70
2022/10/17 04:18:56;;;;;;;1.20;0.80;;;16.10;81.70;;;;;;4974422;28;20449;-70
2022/10/17 04:21:24;;;;;;;0.80;0.80;;;16.20;81.50;;;;;;4974218;28;20473;-71
2022/10/17 04:23:54;;;;;;;1.10;0.70;;;16.10;81.80;;;;;;4974577;28;20446;-70
2022/10/17 04:26:20;;;;;;;1.20;1.03;;;16.20;81.50;;;;;;4974229;28;20509;-70
2022/10/17 04:28:49;;;;;;;0.90;0.90;;;16.20;81.30;;;;;;4974526;28;20450;-71
2022/10/17 04:31:17;;;;;;;0.60;0.60;;;16.20;81.40;;;;;;4974442;28;20470;-70
2022/10/17 04:33:46;;;;;;;1.27;0.80;;;16.20;81.70;;;;;;4974167;28;20454;-70
2022/10/17 04:36:14;;;;;;;0.80;0.80;;;16.20;81.40;;;;;;4974349;28;20482;-69
2022/10/17 04:38:41;;;;;;;0.80;0.80;;;16.20;81.30;;;;;;4974781;28;20450;-70
2022/10/17 04:41:11;;;;;;;0.80;0.80;;;16.30;81.00;;;;;;4974645;28;20462;-70
2022/10/17 04:43:39;;;;;;;1.63;0.80;;;16.30;81.00;;;;;;4975106;28;20509;-71
2022/10/17 04:46:09;;;;;;;0.70;0.70;;;16.30;80.70;;;;;;4974510;28;20450;-70
2022/10/17 04:48:37;;;;;;;1.00;0.60;;;16.20;80.90;;;;;;4974396;28;20446;-70
2022/10/17 04:51:05;;;;;;;0.80;0.80;;;16.20;80.80;;;;;;4974318;28;20478;-72
2022/10/17 04:53:33;;;;;;;0.70;0.70;;;16.20;80.80;;;;;;4974352;28;20461;-71
2022/10/17 04:56:00;;;;;;;0.93;0.80;;;16.20;80.80;;;;;;4974173;28;20446;-70
2022/10/17 04:58:29;;;;;;;0.73;0.73;;;16.10;80.70;;;;;;4973988;28;20446;-71
2022/10/17 05:00:56;;;;;;;1.10;0.70;;;15.90;80.90;;;;;;4974082;28;20517;-71
2022/10/17 05:03:24;;;;;;;1.10;0.70;;;15.90;81.10;;;;;;4974294;28;20441;-72
2022/10/17 05:05:50;;;;;;;1.40;0.80;;;15.90;80.90;;;;;;4974214;28;20465;-71
2022/10/17 05:08:17;;;;;;;0.77;0.77;;;15.80;80.70;;;;;;4974191;28;20557;-71
2022/10/17 05:10:45;;;;;;;0.70;0.70;;;15.80;80.90;;;;;;4974205;28;20470;-71
2022/10/17 05:13:12;;;;;;;0.70;0.70;;;15.70;80.90;;;;;;4973896;28;20454;-72
2022/10/17 05:15:39;;;;;;;0.70;0.70;;;15.80;80.80;;;;;;4974116;28;20458;-71
2022/10/17 05:18:06;;;;;;;0.80;0.70;;;15.70;80.70;;;;;;4974026;28;20478;-71
2022/10/17 05:20:34;;;;;;;0.70;0.70;;;15.70;80.70;;;;;;4974019;28;20446;-72
2022/10/17 05:23:01;;;;;;;0.70;0.70;;;15.70;80.70;;;;;;4974423;28;20450;-72
2022/10/17 05:25:28;;;;;;;0.70;0.70;;;15.70;80.70;;;;;;4973787;28;20984;-72
2022/10/17 05:27:55;;;;;;;0.83;0.80;;;15.70;80.70;;;;;;4974059;28;20449;-72
2022/10/17 05:30:23;;;;;;;0.60;0.60;;;15.70;80.60;;;;;;4975126;28;20450;-71
2022/10/17 05:32:53;;;;;;;0.70;0.70;;;15.70;80.60;;;;;;4977526;28;20450;-72
2022/10/17 05:35:20;;;;;;;1.67;0.70;;;15.70;80.70;;;;;;4977745;28;20500;-72
2022/10/17 05:37:48;;;;;;;0.80;0.70;;;15.70;80.70;;;;;;4977412;28;20532;-72
2022/10/17 05:40:15;;;;;;;0.90;0.70;;;15.70;80.90;;;;;;4977037;28;20942;-73
2022/10/17 05:42:47;;;;;;;0.83;0.83;;;15.70;80.70;;;;;;4977292;28;20496;-72
2022/10/17 05:45:14;;;;;;;0.70;0.70;;;15.70;80.60;;;;;;4977336;28;20473;-71
2022/10/17 05:47:41;;;;;;;1.00;0.77;;;15.70;80.40;;;;;;4977222;28;20450;-72
2022/10/17 05:50:09;;;;;;;0.93;0.70;;;15.80;80.20;;;;;;4977306;28;20473;-71
2022/10/17 05:52:36;;;;;;;0.60;0.60;;;15.70;80.40;;;;;;4977115;28;20477;-72
2022/10/17 05:55:05;;;;;;;0.70;0.63;;;15.70;80.50;;;;;;4977092;28;20446;-71
2022/10/17 05:58:07;;;;;;;1.53;0.80;;;15.70;80.60;;;;;;4976941;28;20532;-71
2022/10/17 06:00:34;;;;;;;0.70;0.70;;;15.70;80.60;;;;;;4976987;28;20437;-73
2022/10/17 06:03:01;;;;;;;0.70;0.70;;;15.70;80.60;;;;;;4977839;28;20454;-73
2022/10/17 06:05:27;;;;;;;0.70;0.70;;;15.80;80.50;;;;;;4976869;28;20934;-72
2022/10/17 06:07:54;;;;;;;2.20;0.90;;;15.80;80.50;;;;;;4977153;28;20520;-75
2022/10/17 06:10:22;;;;;;;0.60;0.60;;;15.90;80.50;;;;;;4977088;28;20442;-75
2022/10/17 06:12:49;;;;;;;0.83;0.77;;;15.90;80.40;;;;;;4977075;28;20474;-73
2022/10/17 06:15:16;;;;;;;0.70;0.70;;;16.10;80.20;;;;;;4977083;28;20450;-71
2022/10/17 06:17:43;;;;;;;0.70;0.60;;;16.10;80.30;;;;;;4976977;28;20533;-72
2022/10/17 06:20:10;;;;;;;0.70;0.70;;;16.20;80.20;;;;;;4976613;28;20946;-72
2022/10/17 06:22:36;;;;;;;0.70;0.70;;;16.40;80.10;;;;;;4976866;28;20470;-72
2022/10/17 06:25:04;;;;;;;0.70;0.67;;;16.60;79.90;;;;;;4976423;28;20950;-72
2022/10/17 06:27:32;;;;;;;0.70;0.70;;;16.80;79.50;;;;;;4976484;28;20449;-72
2022/10/17 06:29:58;;;;;;;0.67;0.63;;;16.80;78.90;;;;;;4976458;28;20449;-72
2022/10/17 06:32:25;;;;;;;0.60;0.60;;;16.80;79.00;;;;;;4976320;28;20475;-72
2022/10/17 06:34:52;;;;;;;0.77;0.77;;;17.00;79.20;;;;;;4976407;28;20872;-72
2022/10/17 06:37:18;;;;;;;0.80;0.77;;;17.60;78.20;;;;;;4976154;28;20482;-72
2022/10/17 06:39:45;;;;;;;0.60;0.60;;;18.40;75.40;;;;;;4976278;28;20465;-72
2022/10/17 06:42:12;;;;;;;0.80;0.73;;;19.30;73.40;;;;;;4976011;28;20478;-72
2022/10/17 06:44:40;;;;;;;0.70;0.67;;;20.20;70.70;;;;;;4976251;28;20473;-72
2022/10/17 06:47:06;;;;;;;0.80;0.70;;;21.10;68.20;;;;;;4976231;28;20443;-72
2022/10/17 06:49:33;;;;;;;3.77;0.87;;;22.20;65.60;;;;;;4975845;28;20454;-72
2022/10/17 06:52:01;;;;;;;0.80;0.63;;;23.20;62.40;;;;;;4976014;28;20476;-71
2022/10/17 06:54:27;;;;;;;0.60;0.60;;;24.10;60.70;;;;;;4976154;28;20443;-72
2022/10/17 06:56:55;;;;;;;0.80;0.63;;;25.00;57.50;;;;;;4975902;28;20454;-72
2022/10/17 06:59:21;;;;;;;1.27;0.73;;;26.10;55.40;;;;;;4975972;28;21012;-72
2022/10/17 07:01:49;;;;;;;0.70;0.60;;;27.30;53.60;;;;;;4975671;28;20489;-72
2022/10/17 07:04:16;;;;;;;0.70;0.60;;;28.40;51.40;;;;;;4975878;28;20450;-73
2022/10/17 07:06:43;;;;;;;0.63;0.50;;;29.50;48.70;;;;;;4975548;28;20449;-72
2022/10/17 07:09:10;;;;;;;0.60;0.50;;;30.30;47.50;;;;;;4975797;28;20454;-72
2022/10/17 07:11:36;;;;;;;0.60;0.50;;;31.00;47.20;;;;;;4975663;28;20546;-72
2022/10/17 07:14:03;;;;;;;1.00;0.60;;;31.70;45.60;;;;;;4976120;28;20454;-72
2022/10/17 07:16:30;;;;;;;0.77;0.67;;;31.70;44.00;;;;;;4976071;28;20454;-73
2022/10/17 07:18:58;;;;;;;0.70;0.50;;;31.90;44.80;;;;;;4975413;28;20997;-73
2022/10/17 07:21:25;;;;;;;0.57;0.50;;;32.10;44.60;;;;;;4975430;28;20481;-73
2022/10/17 07:23:51;;;;;;;0.80;0.57;;;32.70;44.00;;;;;;4975487;28;20451;-73
2022/10/17 07:26:19;;;;;;;1.27;0.60;;;33.70;42.90;;;;;;4975516;28;20453;-73
2022/10/17 07:28:50;;;;;;;0.80;0.60;;;34.90;41.70;;;;;;4975081;28;20453;-72
2022/10/17 07:31:19;;;;;;;0.70;0.50;;;35.50;40.30;;;;;;4975007;28;20474;-73
2022/10/17 07:33:46;;;;;;;0.60;0.60;;;36.00;39.20;;;;;;4975298;28;20456;-73
2022/10/17 07:36:14;;;;;;;0.60;0.60;;;36.40;39.70;;;;;;4975290;28;20450;-73
2022/10/17 07:38:41;;;;;;;1.17;0.60;;;35.90;38.90;;;;;;4974839;28;21001;-73
2022/10/17 07:41:10;;;;;;;0.60;0.60;;;34.80;40.70;;;;;;4974760;28;21112;-73
2022/10/17 07:43:37;;;;;;;0.77;0.60;;;34.10;42.50;;;;;;4974820;28;20445;-73
2022/10/17 07:46:05;;;;;;;0.60;0.50;;;33.20;42.80;;;;;;4975096;28;20450;-73
2022/10/17 07:48:32;;;;;;;0.60;0.50;;;32.10;43.90;;;;;;4974706;28;20510;-73
2022/10/17 07:51:02;;;;;;;0.60;0.60;;;31.20;45.70;;;;;;4974935;28;20474;-73
2022/10/17 07:53:30;;;;;;;0.60;0.60;;;29.60;47.60;;;;;;4974790;28;20450;-73
2022/10/17 07:55:57;;;;;;;0.90;0.70;;;28.20;51.10;;;;;;4974900;28;20497;-73
2022/10/17 07:58:24;;;;;;;0.67;0.60;;;27.30;52.30;;;;;;4974530;28;20993;-73
2022/10/17 08:00:51;;;;;;;1.43;0.70;;;26.30;54.00;;;;;;4974650;28;20470;-73
2022/10/17 08:03:18;;;;;;;0.70;0.60;;;25.50;55.80;;;;;;4974853;28;20446;-73
2022/10/17 08:05:44;;;;;;;0.90;0.60;;;24.90;57.40;;;;;;4974792;28;20442;-73
2022/10/17 08:08:11;;;;;;;0.70;0.60;;;24.20;59.10;;;;;;4974731;28;20443;-73
2022/10/17 08:10:39;;;;;;;0.90;0.70;;;23.70;60.50;;;;;;4974351;28;20804;-72
2022/10/17 08:13:06;;;;;;;0.60;0.60;;;23.70;62.30;;;;;;4974677;28;20446;-73
2022/10/17 08:15:33;;;;;;;0.70;0.60;;;23.50;62.00;;;;;;4974707;28;20446;-72
2022/10/17 08:17:59;;;;;;;0.70;0.63;;;23.50;62.80;;;;;;4974591;28;20481;-72
2022/10/17 08:20:26;;;;;;;1.13;0.70;;;23.30;62.80;;;;;;4974565;28;20839;-72
2022/10/17 08:22:53;;;;;;;0.60;0.60;;;23.00;62.20;;;;;;4974851;28;20450;-72
2022/10/17 08:25:20;;;;;;;0.70;0.70;;;22.70;64.00;;;;;;4974611;28;20451;-72
2022/10/17 08:27:48;;;;;;;0.63;0.60;;;22.70;64.20;;;;;;4974572;28;20450;-72
2022/10/17 08:30:15;;;;;;;2.20;0.70;;;22.80;65.00;;;;;;4974452;28;20461;-72
2022/10/17 08:32:42;;;;;;;0.60;0.57;;;22.60;63.80;;;;;;4974413;28;20532;-72
2022/10/17 08:35:09;;;;;;;1.13;0.60;;;22.10;65.90;;;;;;4974481;28;20450;-72
2022/10/17 08:37:36;;;;;;;0.80;0.70;;;22.20;67.40;;;;;;4974397;28;20478;-72
2022/10/17 08:40:03;;;;;;;0.77;0.57;;;22.10;66.60;;;;;;4974471;28;20454;-72
2022/10/17 08:42:45;;;;;;;0.60;0.60;;;22.10;68.30;;;;;;4974376;28;20818;-73
2022/10/17 08:45:20;;;;;;;0.70;0.60;;;22.00;67.10;;;;;;4974447;28;20853;-73
2022/10/17 08:47:51;;;;;;;1.00;0.80;;;21.80;67.30;;;;;;4974453;28;20426;-72
2022/10/17 08:50:25;;;;;;;0.60;0.60;;;21.60;68.10;;;;;;4974066;28;20926;-72
2022/10/17 08:52:55;;;;;;;2.73;0.70;;;21.70;68.20;;;;;;4974347;28;20493;-72
2022/10/17 08:55:29;;;;;;;0.60;0.50;;;21.70;67.70;;;;;;4974290;28;20460;-72
2022/10/17 08:57:56;;;;;;;0.73;0.50;;;21.80;67.30;;;;;;4974241;28;20528;-72
2022/10/17 09:00:26;;;;;;;0.70;0.60;;;21.90;68.40;;;;;;4973897;28;20457;-72
2022/10/17 09:03:07;;;;;;;1.30;0.60;;;22.00;68.90;;;;;;4973851;28;20474;-72
2022/10/17 09:05:41;;;;;;;0.60;0.60;;;22.00;66.80;;;;;;4975985;28;20434;-72
2022/10/17 09:08:27;;;;;;;0.60;0.60;;;22.10;66.40;;;;;;4977988;28;20429;-72
2022/10/17 09:10:58;;;;;;;0.70;0.60;;;22.10;66.40;;;;;;4978105;28;20476;-72
2022/10/17 09:13:37;;;;;;;0.70;0.70;;;22.30;66.50;;;;;;4977845;28;20434;-72
2022/10/17 09:16:31;;;;;;;1.40;0.63;;;22.40;67.20;;;;;;5017058;23;20493;-76
2022/10/17 09:19:04;;;;;;;0.60;0.60;;;22.40;65.60;;;;;;4995857;28;21004;-75
2022/10/17 09:21:41;;;;;;;0.80;0.60;;;22.20;66.30;;;;;;4996266;28;20441;-75
2022/10/17 09:24:15;;;;;;;0.60;0.60;;;22.20;66.90;;;;;;4995998;28;20444;-75
2022/10/17 09:26:43;;;;;;;0.60;0.60;;;22.20;66.70;;;;;;4996202;28;20509;-76
2022/10/17 09:29:17;;;;;;;0.70;0.70;;;22.20;67.20;;;;;;4996251;28;20471;-76
2022/10/17 09:31:50;;;;;;;0.67;0.60;;;22.20;67.10;;;;;;4996051;28;20433;-75
2022/10/17 09:34:17;;;;;;;0.60;0.60;;;22.20;67.20;;;;;;4995925;28;20433;-76
2022/10/17 09:36:43;;;;;;;0.70;0.60;;;22.30;67.80;;;;;;4995880;28;20460;-76
2022/10/17 09:39:13;;;;;;;0.80;0.60;;;22.30;69.10;;;;;;4995601;28;20488;-75
2022/10/17 09:41:43;;;;;;;0.80;0.60;;;22.40;66.60;;;;;;4995929;28;20445;-76
2022/10/17 09:44:17;;;;;;;0.70;0.60;;;22.50;67.30;;;;;;4995589;28;20461;-76
2022/10/17 09:46:54;;;;;;;0.80;0.80;;;22.60;67.90;;;;;;4996151;28;20533;-76
2022/10/17 09:49:25;;;;;;;0.60;0.60;;;22.60;67.20;;;;;;4995762;28;20455;-76
2022/10/17 09:51:52;;;;;;;0.97;0.70;;;22.70;65.20;;;;;;4995771;28;20445;-76
2022/10/17 09:54:24;;;;;;;0.60;0.50;;;22.80;67.90;;;;;;4995554;28;20476;-76
2022/10/17 09:56:58;;;;;;;0.80;0.60;;;22.70;67.00;;;;;;4995465;28;20429;-76
2022/10/17 09:59:33;;;;;;;0.70;0.70;;;22.70;67.60;;;;;;4995433;28;20488;-76
2022/10/17 10:02:17;;;;;;;0.60;0.50;;;22.70;65.20;;;;;;4995367;28;20457;-76
2022/10/17 10:05:03;;;;;;;0.60;0.60;;;22.50;65.50;;;;;;4995355;28;20476;-75
2022/10/17 10:07:31;;;;;;;1.27;1.13;;;22.40;65.90;;;;;;4996101;28;20500;-76
2022/10/17 10:10:00;;;;;;;0.70;0.60;;;22.30;66.20;;;;;;4995323;28;20445;-76
2022/10/17 10:12:30;;;;;;;0.80;0.60;;;22.40;66.00;;;;;;4995288;28;20457;-76
2022/10/17 10:14:57;;;;;;;0.60;0.60;;;22.40;67.20;;;;;;4994988;28;20485;-76
2022/10/17 10:17:35;;;;;;;0.90;0.70;;;22.60;67.80;;;;;;4994868;28;20496;-76
2022/10/17 10:20:03;;;;;;;0.60;0.50;;;22.80;67.60;;;;;;4995369;28;20480;-76
2022/10/17 10:22:30;;;;;;;2.07;0.70;;;23.00;67.30;;;;;;4995071;28;20795;-76
2022/10/17 10:25:15;;;;;;;0.70;0.60;;;23.00;68.10;;;;;;4994997;28;20473;-77
2022/10/17 10:27:43;;;;;;;0.70;0.60;;;23.00;66.40;;;;;;4995282;28;20425;-76
2022/10/17 10:30:18;;;;;;;0.70;0.60;;;23.00;67.00;;;;;;4995067;28;20445;-76
2022/10/17 10:32:48;;;;;;;0.67;0.60;;;22.90;66.50;;;;;;4995145;28;20479;-76
2022/10/17 10:35:21;;;;;;;0.60;0.50;;;23.00;65.30;;;;;;4994496;28;20473;-76
2022/10/17 10:37:50;;;;;;;0.60;0.50;;;22.90;65.90;;;;;;4995152;28;20436;-76
2022/10/17 10:40:19;;;;;;;0.60;0.60;;;22.90;66.70;;;;;;4995214;28;20445;-75
2022/10/17 10:42:48;;;;;;;0.70;0.60;;;23.00;65.90;;;;;;4994712;28;20457;-76
2022/10/17 10:45:17;;;;;;;0.90;0.70;;;23.00;66.80;;;;;;4994639;28;20476;-76
2022/10/17 10:47:53;;;;;;;0.70;0.63;;;23.10;66.30;;;;;;4994692;28;20461;-76
2022/10/17 10:50:28;;;;;;;0.77;0.70;;;23.20;64.90;;;;;;4994906;28;20441;-76
2022/10/17 10:53:12;;;;;;;0.60;0.60;;;23.40;63.80;;;;;;4994203;28;20440;-76
2022/10/17 10:55:45;;;;;;;0.60;0.60;;;23.40;63.60;;;;;;4994075;28;20869;-75
2022/10/17 10:58:29;;;;;;;0.80;0.60;;;23.30;64.40;;;;;;4994637;28;20430;-76
2022/10/17 11:01:00;;;;;;;1.13;0.60;;;23.50;64.20;;;;;;4994639;28;20452;-76
2022/10/17 11:03:33;;;;;;;0.80;0.70;;;23.70;63.00;;;;;;4995317;28;20452;-75
2022/10/17 11:06:05;;;;;;;0.80;0.60;;;23.80;64.20;;;;;;4995142;28;20477;-76
2022/10/17 11:08:37;;;;;;;1.23;0.67;;;24.00;62.00;;;;;;4995299;28;20434;-74
2022/10/17 11:11:16;;;;;;;0.80;0.70;;;24.10;60.90;;;;;;4995072;28;20429;-76
2022/10/17 11:13:48;;;;;;;1.00;0.70;;;24.30;59.30;;;;;;4996634;28;20448;-77
2022/10/17 11:16:25;;;;;;;0.87;0.60;;;24.30;59.20;;;;;;4996296;28;20862;-76
2022/10/17 11:18:59;;;;;;;0.80;0.70;;;24.30;59.00;;;;;;4994752;28;20469;-75
2022/10/17 11:21:38;;;;;;;0.60;0.60;;;24.40;60.10;;;;;;4994825;28;20438;-77
2022/10/17 11:24:10;;;;;;;0.70;0.60;;;24.30;59.50;;;;;;4995012;28;20442;-76
2022/10/17 11:26:44;;;;;;;0.70;0.63;;;24.40;58.40;;;;;;4994874;28;20437;-76
2022/10/17 11:29:13;;;;;;;0.80;0.60;;;24.60;57.90;;;;;;4993557;28;20805;-75
2022/10/17 11:31:45;;;;;;;0.70;0.63;;;24.60;57.20;;;;;;4994461;28;20965;-76
2022/10/17 11:34:18;;;;;;;0.90;0.90;;;24.60;56.30;;;;;;4994259;28;20433;-75
2022/10/17 11:36:48;;;;;;;0.77;0.60;;;24.60;58.30;;;;;;4995161;28;20442;-76
2022/10/17 11:39:19;;;;;;;0.70;0.70;;;24.70;56.40;;;;;;4994464;28;20504;-76
2022/10/17 11:41:49;;;;;;;0.60;0.60;;;24.80;56.70;;;;;;4994568;28;20536;-77
2022/10/17 11:44:21;;;;;;;0.90;0.60;;;25.00;55.40;;;;;;4994626;28;20449;-77
2022/10/17 11:46:55;;;;;;;0.60;0.60;;;25.20;55.30;;;;;;4994552;28;20785;-76
2022/10/17 11:49:28;;;;;;;0.60;0.50;;;25.30;54.60;;;;;;4994160;28;20430;-76
2022/10/17 11:52:06;;;;;;;0.70;0.60;;;25.60;54.60;;;;;;4994353;28;20450;-76
2022/10/17 11:54:37;;;;;;;1.10;0.60;;;25.80;53.40;;;;;;4994506;28;20469;-76
2022/10/17 11:57:18;;;;;;;0.60;0.60;;;26.00;54.30;;;;;;4994260;28;20421;-75
2022/10/17 12:00:06;;;;;;;0.60;0.60;;;26.20;54.10;;;;;;4994128;28;20480;-77
2022/10/17 12:02:42;;;;;;;0.70;0.57;;;26.40;53.10;;;;;;4993770;28;20433;-76
2022/10/17 12:05:20;;;;;;;0.60;0.60;;;26.60;51.90;;;;;;4993852;28;20539;-76
2022/10/17 12:07:51;;;;;;;0.60;0.60;;;26.70;52.80;;;;;;4993813;28;20556;-77
2022/10/17 12:10:30;;;;;;;0.70;0.60;;;26.90;52.60;;;;;;4993650;28;20910;-76
2022/10/17 12:12:57;;;;;;;0.60;0.60;;;27.10;51.60;;;;;;4993813;28;20452;-77
2022/10/17 12:15:31;;;;;;;1.00;0.90;;;27.30;53.10;;;;;;4993672;28;20488;-76
2022/10/17 12:18:01;;;;;;;0.90;0.70;;;27.60;52.80;;;;;;4993900;28;20960;-76
2022/10/17 12:20:34;;;;;;;0.73;0.73;;;27.90;51.70;;;;;;4993492;28;20972;-75
2022/10/17 12:23:21;;;;;;;1.03;0.93;;;28.00;51.60;;;;;;4994373;28;20885;-77
2022/10/17 12:25:51;;;;;;;0.70;0.70;;;28.00;50.70;;;;;;4990697;28;20507;-76
2022/10/17 12:28:24;;;;;;;0.60;0.60;;;28.10;51.50;;;;;;4994203;28;20456;-76
2022/10/17 12:30:55;;;;;;;0.70;0.60;;;28.60;51.10;;;;;;4993936;28;20446;-76
2022/10/17 12:33:25;;;;;;;0.60;0.60;;;28.70;49.90;;;;;;4993665;28;20456;-77
2022/10/17 12:36:44;;;;;;;0.80;0.70;;;28.90;51.40;;;;;;4993384;28;20457;-76
2022/10/17 12:39:53;;;;;;;0.60;0.60;;;28.80;49.60;;;;;;4994684;28;20492;-75
2022/10/17 12:42:50;;;;;;;1.27;0.60;;;28.40;50.60;;;;;;4997445;28;20786;-77
2022/10/17 12:45:45;;;;;;;0.60;0.60;;;28.60;50.30;;;;;;4991259;28;20491;-76
2022/10/17 12:48:12;;;;;;;0.70;0.60;;;28.80;51.10;;;;;;4997429;28;20475;-77
2022/10/17 12:51:04;;;;;;;1.00;0.67;;;28.90;50.50;;;;;;4997715;28;20437;-77
2022/10/17 12:53:41;;;;;;;0.60;0.60;;;29.30;49.70;;;;;;4997656;28;20445;-77
2022/10/17 12:56:08;;;;;;;0.70;0.60;;;29.40;49.60;;;;;;4997881;28;20832;-77
2022/10/17 12:58:36;;;;;;;0.90;0.70;;;29.40;47.50;;;;;;4997985;28;20456;-77
2022/10/17 13:01:07;;;;;;;0.90;0.60;;;29.10;49.80;;;;;;4997775;28;20453;-78
2022/10/17 13:03:40;;;;;;;0.97;0.60;;;29.20;48.10;;;;;;4997188;28;20437;-77
2022/10/17 13:06:15;;;;;;;0.60;0.50;;;28.90;48.70;;;;;;4997211;28;20465;-77
2022/10/17 13:08:45;;;;;;;0.60;0.60;;;29.20;47.90;;;;;;4997169;28;20905;-77
2022/10/17 13:11:14;;;;;;;0.87;0.60;;;29.60;47.10;;;;;;4997075;28;20946;-78
2022/10/17 13:13:44;;;;;;;0.70;0.60;;;29.70;45.50;;;;;;4997674;28;20459;-78
2022/10/17 13:16:29;;;;;;;0.90;0.70;;;30.00;46.40;;;;;;4996833;28;20485;-78
2022/10/17 13:18:56;;;;;;;0.60;0.50;;;30.60;47.50;;;;;;4998201;28;20488;-78
2022/10/17 13:21:25;;;;;;;0.60;0.50;;;31.10;44.40;;;;;;4997999;28;20448;-78
2022/10/17 13:23:53;;;;;;;0.60;0.50;;;31.80;43.20;;;;;;4998898;28;20452;-78
2022/10/17 13:26:22;;;;;;;1.23;0.50;;;32.60;41.20;;;;;;4999530;28;20472;-78
2022/10/17 13:29:02;;;;;;;0.73;0.60;;;34.10;39.80;;;;;;4997653;28;20453;-79
2022/10/17 13:31:31;;;;;;;0.60;0.53;;;36.30;37.20;;;;;;4996900;28;20919;-78
2022/10/17 13:33:59;;;;;;;0.70;0.60;;;37.00;36.00;;;;;;4996974;28;20481;-79
2022/10/17 13:36:28;;;;;;;0.60;0.60;;;38.30;35.30;;;;;;4996946;28;20452;-79
2022/10/17 13:38:55;;;;;;;0.70;0.70;;;39.90;33.00;;;;;;4996753;28;20455;-79
2022/10/17 13:41:27;;;;;;;1.17;0.68;;;40.90;31.40;;;;;;4996886;28;20625;-80
2022/10/17 13:43:56;;;;;;;0.60;0.50;;;41.90;30.60;;;;;;4996870;28;20266;-79
2022/10/17 13:46:28;;;;;;;0.60;0.60;;;42.60;30.30;;;;;;4996842;28;20229;-79
2022/10/17 13:48:56;;;;;;;0.68;0.60;;;43.20;29.20;;;;;;4997016;28;20205;-79
2022/10/17 13:51:24;;;;;;;0.80;0.68;;;44.50;28.80;;;;;;4996025;28;20458;-79
2022/10/17 13:53:53;;;;;;;0.63;0.60;;;45.10;28.00;;;;;;4996569;28;20206;-79
2022/10/17 13:56:24;;;;;;;0.70;0.57;;;46.10;27.70;;;;;;4996903;28;20709;-78
2022/10/17 13:58:54;;;;;;;0.80;0.60;;;46.50;27.90;;;;;;4997909;28;20265;-79
2022/10/17 14:01:22;;;;;;;0.60;0.52;;;46.70;27.40;;;;;;4997109;28;20709;-79
2022/10/17 14:03:50;;;;;;;0.60;0.60;;;46.80;27.40;;;;;;4995871;28;20688;-79
2022/10/17 14:06:18;;;;;;;1.00;0.80;;;47.00;28.60;;;;;;4996572;28;20604;-78
2022/10/17 14:08:57;;;;;;;1.27;0.70;;;47.10;29.40;;;;;;4996847;28;20209;-78
2022/10/17 14:11:33;;;;;;;0.73;0.60;;;46.70;29.20;;;;;;4996659;28;20201;-79
2022/10/17 14:14:01;;;;;;;0.80;0.70;;;46.40;29.80;;;;;;4996051;28;20189;-78
2022/10/17 14:16:36;;;;;;;0.70;0.60;;;46.10;30.10;;;;;;4996082;28;20225;-79
2022/10/17 14:19:04;;;;;;;0.60;0.50;;;46.10;29.50;;;;;;4996157;28;20193;-78
2022/10/17 14:21:31;;;;;;;0.60;0.60;;;45.80;29.50;;;;;;4996271;28;20227;-79
2022/10/17 14:24:24;;;;;;;0.60;0.60;;;45.60;29.80;;;;;;4996214;28;20213;-80
2022/10/17 14:26:53;;;;;;;0.60;0.60;;;45.40;29.70;;;;;;4996030;28;20213;-79
2022/10/17 14:29:25;;;;;;;0.68;0.68;;;45.30;29.90;;;;;;4995644;28;20206;-79
2022/10/17 14:32:02;;;;;;;0.70;0.60;;;45.10;29.70;;;;;;4996119;28;20213;-79
2022/10/17 14:34:32;;;;;;;0.70;0.60;;;44.70;30.30;;;;;;4978465;28;20225;-78
2022/10/17 14:37:00;;;;;;;0.60;0.50;;;44.50;30.30;;;;;;4995874;28;20561;-78
2022/10/17 14:39:28;;;;;;;0.90;0.60;;;44.10;30.20;;;;;;4995187;28;20233;-78
2022/10/17 14:41:55;;;;;;;1.13;0.70;;;43.90;30.50;;;;;;4995616;28;20232;-78
2022/10/17 14:44:26;;;;;;;0.70;0.60;;;43.80;30.70;;;;;;4994728;28;20234;-78
2022/10/17 14:46:56;;;;;;;0.60;0.55;;;43.60;30.70;;;;;;4994798;28;20201;-78
2022/10/17 14:49:35;;;;;;;0.80;0.60;;;43.20;30.70;;;;;;4994667;28;20217;-78
2022/10/17 14:52:30;;;;;;;0.60;0.57;;;42.70;31.50;;;;;;4994472;28;20186;-77
2022/10/17 14:54:59;;;;;;;0.67;0.60;;;42.30;32.20;;;;;;4977184;28;20503;-77
2022/10/17 14:57:34;;;;;;;0.90;0.60;;;41.90;32.90;;;;;;4994440;28;20456;-77
2022/10/17 15:00:01;;;;;;;0.80;0.70;;;41.40;33.20;;;;;;4994405;28;20475;-77
2022/10/17 15:02:29;;;;;;;0.80;0.73;;;41.00;34.00;;;;;;4993399;28;20456;-77
2022/10/17 15:04:56;;;;;;;1.13;0.60;;;40.30;34.40;;;;;;4994111;28;20825;-77
2022/10/17 15:07:23;;;;;;;1.10;0.70;;;39.10;35.60;;;;;;4995119;28;20456;-77
2022/10/17 15:09:52;;;;;;;0.70;0.60;;;37.80;36.90;;;;;;4994158;28;20445;-76
2022/10/17 15:12:22;;;;;;;0.80;0.60;;;36.50;38.40;;;;;;4994303;28;20464;-76
2022/10/17 15:14:49;;;;;;;0.70;0.70;;;35.20;40.10;;;;;;5106944;23;20493;-75
2022/10/17 15:17:20;;;;;;;0.70;0.60;;;33.90;41.70;;;;;;4975883;28;20516;-74
2022/10/17 15:19:47;;;;;;;0.70;0.60;;;32.80;43.60;;;;;;4975522;28;20541;-75
2022/10/17 15:22:14;;;;;;;0.77;0.70;;;31.90;45.40;;;;;;4975525;28;20836;-75
2022/10/17 15:24:41;;;;;;;0.60;0.50;;;31.10;46.70;;;;;;4975175;28;20496;-75
2022/10/17 15:27:15;;;;;;;0.80;0.60;;;30.50;47.70;;;;;;4975153;28;20453;-75
2022/10/17 15:29:43;;;;;;;0.70;0.60;;;29.90;48.80;;;;;;4975462;28;20427;-74
2022/10/17 15:32:10;;;;;;;0.80;0.70;;;29.30;49.70;;;;;;4975362;28;20457;-75
2022/10/17 15:34:37;;;;;;;0.60;0.60;;;28.90;50.70;;;;;;4975137;28;20816;-75
2022/10/17 15:37:06;;;;;;;0.70;0.63;;;28.50;51.30;;;;;;4974917;28;20453;-74
2022/10/17 15:39:33;;;;;;;0.70;0.60;;;28.20;52.20;;;;;;4975105;28;20462;-74
2022/10/17 15:41:59;;;;;;;0.90;0.60;;;28.00;53.20;;;;;;4974837;28;20954;-74
2022/10/17 15:44:26;;;;;;;0.70;0.70;;;27.70;53.40;;;;;;4974819;28;20446;-74
2022/10/17 15:46:56;;;;;;;1.07;0.70;;;27.60;53.90;;;;;;4975039;28;20477;-74
2022/10/17 15:49:22;;;;;;;0.70;0.70;;;27.40;54.20;;;;;;4975065;28;20493;-75
2022/10/17 15:51:49;;;;;;;0.70;0.63;;;27.20;55.00;;;;;;4975038;28;20450;-74
2022/10/17 15:54:16;;;;;;;1.27;0.80;;;27.00;56.60;;;;;;4975009;28;20446;-74
2022/10/17 15:56:45;;;;;;;1.13;0.77;;;26.90;57.40;;;;;;4974620;28;20470;-74
2022/10/17 15:59:15;;;;;;;0.67;0.60;;;26.70;57.90;;;;;;4974646;28;20937;-74
2022/10/17 16:01:42;;;;;;;1.00;0.80;;;26.50;59.10;;;;;;4974784;28;20490;-74
2022/10/17 16:04:14;;;;;;;1.00;0.70;;;26.40;59.80;;;;;;4974832;28;20451;-74
2022/10/17 16:06:41;;;;;;;1.83;1.00;;;26.20;60.70;;;;;;4974624;28;20466;-74